Time,TemperatureF,DewpointF,PressureIn,WindDirection,WindDirectionDegrees,WindSpeedMPH,WindSpeedGustMPH,Humidity,HourlyPrecipIn,Conditions,Clouds,dailyrainin,SolarRadiationWatts/m^2,SoftwareType,DateUTC
2013-04-16 00:00:00,37.9,34.0,30.41,SSW,203,3.0,8.0,85,0.00,,,0.00,0,weatherlink.com 1.10,2013-04-16 04:00:00,
2013-04-16 00:15:00,38.4,34.0,30.41,SSW,200,4.0,10.0,84,0.00,,,0.00,0,weatherlink.com 1.10,2013-04-16 04:15:00,
2013-04-16 00:30:00,38.9,34.0,30.41,SSW,199,6.0,12.0,81,0.00,,,0.00,0,weatherlink.com 1.10,2013-04-16 04:30:00,
2013-04-16 00:45:00,39.2,34.0,30.42,SW,224,7.0,13.0,80,0.00,,,0.00,0,weatherlink.com 1.10,2013-04-16 04:45:00,
2013-04-16 01:00:00,39.0,33.0,30.41,SW,232,13.0,16.0,80,0.00,,,0.00,0,weatherlink.com 1.10,2013-04-16 05:00:00,
2013-04-16 01:15:00,39.2,34.0,30.40,South,169,10.0,17.0,80,0.00,,,0.00,0,weatherlink.com 1.10,2013-04-16 05:15:00,
2013-04-16 01:30:00,39.8,33.0,30.40,SSW,207,12.0,20.0,78,0.00,,,0.00,0,weatherlink.com 1.10,2013-04-16 05:30:00,
2013-04-16 01:45:00,39.9,33.0,30.40,SSW,212,8.0,14.0,77,0.00,,,0.00,0,weatherlink.com 1.10,2013-04-16 05:45:00,
2013-04-16 02:00:00,40.5,32.0,30.39,SSW,210,7.0,12.0,73,0.00,,,0.00,0,weatherlink.com 1.10,2013-04-16 06:00:00,
2013-04-16 02:15:00,41.1,32.0,30.39,SSW,198,5.0,12.0,70,0.00,,,0.00,0,weatherlink.com 1.10,2013-04-16 06:15:00,
2013-04-16 02:30:00,40.9,32.0,30.39,SW,219,6.0,9.0,70,0.00,,,0.00,0,weatherlink.com 1.10,2013-04-16 06:30:00,
2013-04-16 02:45:00,40.6,32.0,30.39,SW,220,3.0,8.0,71,0.00,,,0.00,0,weatherlink.com 1.10,2013-04-16 06:45:00,
2013-04-16 03:00:00,39.7,32.0,30.39,SW,217,0.0,7.0,73,0.00,,,0.00,0,weatherlink.com 1.10,2013-04-16 07:00:00,
2013-04-16 03:15:00,39.6,32.0,30.40,SSW,209,2.0,4.0,73,0.00,,,0.00,0,weatherlink.com 1.10,2013-04-16 07:15:00,
2013-04-16 03:30:00,39.8,31.0,30.39,SSW,209,6.0,7.0,70,0.00,,,0.00,0,weatherlink.com 1.10,2013-04-16 07:30:00,
2013-04-16 03:45:00,39.8,31.0,30.39,SSW,203,4.0,7.0,70,0.00,,,0.00,0,weatherlink.com 1.10,2013-04-16 07:45:00,
2013-04-16 04:00:00,39.3,30.0,30.39,SSW,205,5.0,6.0,69,0.00,,,0.00,0,weatherlink.com 1.10,2013-04-16 08:00:00,
2013-04-16 04:15:00,39.4,30.0,30.39,SW,232,0.0,9.0,68,0.00,,,0.00,0,weatherlink.com 1.10,2013-04-16 08:15:00,
2013-04-16 04:30:00,38.7,30.0,30.39,SW,219,1.0,4.0,70,0.00,,,0.00,0,weatherlink.com 1.10,2013-04-16 08:30:00,
2013-04-16 04:45:00,38.8,30.0,30.39,SW,219,3.0,5.0,70,0.00,,,0.00,0,weatherlink.com 1.10,2013-04-16 08:45:00,
2013-04-16 05:00:00,38.4,29.0,30.39,SSW,205,1.0,7.0,70,0.00,,,0.00,0,weatherlink.com 1.10,2013-04-16 09:00:00,
2013-04-16 05:15:00,39.2,29.0,30.38,SSW,196,4.0,7.0,68,0.00,,,0.00,0,weatherlink.com 1.10,2013-04-16 09:15:00,
2013-04-16 05:30:00,39.2,30.0,30.38,SSW,196,3.0,7.0,69,0.00,,,0.00,0,weatherlink.com 1.10,2013-04-16 09:30:00,
2013-04-16 05:45:00,39.2,30.0,30.38,SSW,192,0.0,4.0,69,0.00,,,0.00,0,weatherlink.com 1.10,2013-04-16 09:45:00,
2013-04-16 06:00:00,39.1,30.0,30.37,SSW,192,2.0,3.0,69,0.00,,,0.00,0,weatherlink.com 1.10,2013-04-16 10:00:00,
2013-04-16 06:15:00,38.9,29.0,30.38,SSW,192,2.0,3.0,69,0.00,,,0.00,11,weatherlink.com 1.10,2013-04-16 10:15:00,
2013-04-16 06:30:00,39.4,29.0,30.38,South,184,4.0,5.0,67,0.00,,,0.00,16,weatherlink.com 1.10,2013-04-16 10:30:00,
2013-04-16 06:46:00,38.6,30.0,30.38,SSE,167,2.0,5.0,72,0.00,,,0.00,35,weatherlink.com 1.10,2013-04-16 10:46:00,
2013-04-16 07:01:00,39.7,29.0,30.37,SSE,167,0.0,5.0,65,0.00,,,0.00,47,weatherlink.com 1.10,2013-04-16 11:01:00,
2013-04-16 07:31:00,40.5,30.0,30.37,SSE,167,0.0,3.0,66,0.00,,,0.00,90,weatherlink.com 1.10,2013-04-16 11:31:00,
2013-04-16 07:46:00,40.7,30.0,30.38,South,174,3.0,6.0,65,0.00,,,0.00,72,weatherlink.com 1.10,2013-04-16 11:46:00,
2013-04-16 08:46:00,42.3,32.0,30.36,WSW,244,10.0,19.0,67,0.00,,,0.00,165,weatherlink.com 1.10,2013-04-16 12:46:00,
2013-04-16 09:16:00,43.7,33.0,30.35,SW,236,6.0,12.0,67,0.00,,,0.00,264,weatherlink.com 1.10,2013-04-16 13:16:00,
2013-04-16 09:31:00,44.2,34.0,30.34,SSW,201,11.0,13.0,68,0.00,,,0.00,239,weatherlink.com 1.10,2013-04-16 13:31:00,
2013-04-16 09:46:00,44.3,35.0,30.34,South,191,5.0,18.0,69,0.00,,,0.00,374,weatherlink.com 1.10,2013-04-16 13:46:00,
2013-04-16 10:01:00,46.8,35.0,30.33,WSW,240,4.0,14.0,65,0.00,,,0.00,429,weatherlink.com 1.10,2013-04-16 14:01:00,
2013-04-16 10:16:00,47.2,36.0,30.33,WSW,257,4.0,17.0,65,0.00,,,0.00,345,weatherlink.com 1.10,2013-04-16 14:16:00,
2013-04-16 10:31:00,47.8,36.0,30.33,SSW,205,7.0,20.0,64,0.00,,,0.00,234,weatherlink.com 1.10,2013-04-16 14:31:00,
2013-04-16 10:46:00,47.9,37.0,30.33,SW,228,9.0,17.0,65,0.00,,,0.00,380,weatherlink.com 1.10,2013-04-16 14:46:00,
2013-04-16 11:01:00,48.3,37.0,30.32,SSW,211,3.0,15.0,66,0.00,,,0.00,415,weatherlink.com 1.10,2013-04-16 15:01:00,
2013-04-16 11:16:00,50.4,38.0,30.31,SSW,204,13.0,17.0,62,0.00,,,0.00,422,weatherlink.com 1.10,2013-04-16 15:16:00,
2013-04-16 11:31:00,50.6,37.0,30.29,SSW,209,10.0,16.0,61,0.00,,,0.00,429,weatherlink.com 1.10,2013-04-16 15:31:00,
2013-04-16 11:46:00,50.5,38.0,30.27,WSW,244,11.0,19.0,62,0.00,,,0.00,434,weatherlink.com 1.10,2013-04-16 15:46:00,
2013-04-16 12:01:00,52.2,38.0,30.25,SSW,203,4.0,19.0,60,0.00,,,0.00,879,weatherlink.com 1.10,2013-04-16 16:01:00,
2013-04-16 12:16:00,53.3,39.0,30.25,SW,220,20.0,21.0,59,0.00,,,0.00,784,weatherlink.com 1.10,2013-04-16 16:16:00,
2013-04-16 12:32:00,54.6,39.0,30.25,SW,233,12.0,19.0,57,0.00,,,0.00,904,weatherlink.com 1.10,2013-04-16 16:32:00,
2013-04-16 12:47:00,54.3,40.0,30.24,South,182,10.0,20.0,58,0.00,,,0.00,475,weatherlink.com 1.10,2013-04-16 16:47:00,
2013-04-16 13:02:00,55.8,41.0,30.23,South,184,3.0,20.0,57,0.00,,,0.00,1065,weatherlink.com 1.10,2013-04-16 17:02:00,
2013-04-16 13:17:00,57.1,41.0,30.22,West,260,12.0,23.0,55,0.00,,,0.00,902,weatherlink.com 1.10,2013-04-16 17:17:00,
2013-04-16 13:32:00,57.4,41.0,30.20,SSW,194,19.0,23.0,55,0.00,,,0.00,740,weatherlink.com 1.10,2013-04-16 17:32:00,
2013-04-16 13:47:00,58.3,41.0,30.19,SSW,202,7.0,22.0,54,0.00,,,0.00,585,weatherlink.com 1.10,2013-04-16 17:47:00,
2013-04-16 14:02:00,59.4,42.0,30.18,SW,232,13.0,23.0,53,0.00,,,0.00,617,weatherlink.com 1.10,2013-04-16 18:02:00,
2013-04-16 14:17:00,59.0,42.0,30.18,SSE,165,13.0,30.0,53,0.00,,,0.00,526,weatherlink.com 1.10,2013-04-16 18:17:00,
2013-04-16 14:32:00,59.1,42.0,30.16,West,278,8.0,28.0,54,0.00,,,0.00,410,weatherlink.com 1.10,2013-04-16 18:32:00,
2013-04-16 14:47:00,59.0,42.0,30.15,SSW,211,10.0,24.0,54,0.00,,,0.00,292,weatherlink.com 1.10,2013-04-16 18:47:00,
2013-04-16 15:02:00,57.5,44.0,30.16,WSW,243,17.0,29.0,61,0.00,,,0.00,151,weatherlink.com 1.10,2013-04-16 19:02:00,
2013-04-16 15:17:00,57.2,45.0,30.15,SW,230,15.0,25.0,65,0.00,,,0.00,322,weatherlink.com 1.10,2013-04-16 19:17:00,
2013-04-16 15:32:00,57.9,45.0,30.13,WNW,284,21.0,28.0,62,0.00,,,0.00,206,weatherlink.com 1.10,2013-04-16 19:32:00,
2013-04-16 15:47:00,57.1,45.0,30.12,WSW,242,14.0,42.0,64,0.00,,,0.00,46,weatherlink.com 1.10,2013-04-16 19:47:00,
2013-04-16 16:02:00,53.7,47.0,30.12,WSW,247,18.0,42.0,78,0.01,,,0.01,63,weatherlink.com 1.10,2013-04-16 20:02:00,
2013-04-16 16:17:00,52.7,48.0,30.11,WSW,240,19.0,36.0,83,0.03,,,0.03,86,weatherlink.com 1.10,2013-04-16 20:17:00,
2013-04-16 16:47:00,52.0,48.0,30.10,WSW,248,14.0,32.0,85,0.05,,,0.05,74,weatherlink.com 1.10,2013-04-16 20:47:00,
2013-04-16 17:02:00,52.3,47.0,30.09,SW,219,33.0,40.0,83,0.04,,,0.05,74,weatherlink.com 1.10,2013-04-16 21:02:00,
2013-04-16 17:17:00,52.6,47.0,30.09,WSW,238,23.0,38.0,82,0.02,,,0.05,60,weatherlink.com 1.10,2013-04-16 21:17:00,
2013-04-16 17:32:00,53.6,47.0,30.07,SSW,204,15.0,40.0,79,0.01,,,0.05,102,weatherlink.com 1.10,2013-04-16 21:32:00,
2013-04-16 17:47:00,53.9,47.0,30.06,SW,233,26.0,37.0,78,0.00,,,0.05,26,weatherlink.com 1.10,2013-04-16 21:47:00,
2013-04-16 18:02:00,54.1,47.0,30.08,WSW,250,25.0,38.0,78,0.00,,,0.05,83,weatherlink.com 1.10,2013-04-16 22:02:00,
2013-04-16 18:17:00,53.9,48.0,30.08,WSW,250,8.0,28.0,79,0.00,,,0.05,16,weatherlink.com 1.10,2013-04-16 22:17:00,
2013-04-16 18:32:00,54.0,49.0,30.06,SW,227,22.0,26.0,83,0.00,,,0.05,86,weatherlink.com 1.10,2013-04-16 22:32:00,
2013-04-16 18:47:00,54.1,48.0,30.03,SW,236,18.0,44.0,80,0.00,,,0.05,79,weatherlink.com 1.10,2013-04-16 22:47:00,
2013-04-16 19:02:00,54.0,48.0,30.01,WSW,253,28.0,41.0,80,0.00,,,0.05,40,weatherlink.com 1.10,2013-04-16 23:02:00,
2013-04-16 19:18:00,54.0,48.0,30.02,WSW,245,21.0,42.0,81,0.00,,,0.05,18,weatherlink.com 1.10,2013-04-16 23:18:00,
2013-04-16 19:33:00,53.9,48.0,30.03,West,259,26.0,40.0,81,0.00,,,0.05,5,weatherlink.com 1.10,2013-04-16 23:33:00,
2013-04-16 19:48:00,53.9,48.0,30.02,SW,229,18.0,43.0,81,0.00,,,0.05,0,weatherlink.com 1.10,2013-04-16 23:48:00,
2013-04-16 20:03:00,53.7,48.0,30.03,WSW,238,31.0,38.0,82,0.00,,,0.05,0,weatherlink.com 1.10,2013-04-17 00:03:00,
2013-04-16 20:18:00,53.7,48.0,30.02,SW,232,24.0,42.0,82,0.00,,,0.05,0,weatherlink.com 1.10,2013-04-17 00:18:00,
2013-04-16 20:33:00,53.5,49.0,30.02,West,271,24.0,34.0,83,0.00,,,0.05,0,weatherlink.com 1.10,2013-04-17 00:33:00,
2013-04-16 20:48:00,53.3,48.0,30.02,WSW,253,23.0,39.0,83,0.00,,,0.05,0,weatherlink.com 1.10,2013-04-17 00:48:00,
2013-04-16 21:03:00,53.0,48.0,30.01,SW,225,11.0,35.0,84,0.00,,,0.05,0,weatherlink.com 1.10,2013-04-17 01:03:00,
2013-04-16 21:18:00,53.0,49.0,30.01,WSW,253,27.0,42.0,85,0.00,,,0.05,0,weatherlink.com 1.10,2013-04-17 01:18:00,
2013-04-16 21:33:00,52.9,49.0,30.00,SW,234,11.0,44.0,86,0.00,,,0.05,0,weatherlink.com 1.10,2013-04-17 01:33:00,
2013-04-16 21:48:00,52.6,49.0,30.01,West,274,19.0,33.0,86,0.00,,,0.05,0,weatherlink.com 1.10,2013-04-17 01:48:00,
2013-04-16 22:03:00,52.8,49.0,30.01,WSW,250,33.0,39.0,87,0.00,,,0.05,0,weatherlink.com 1.10,2013-04-17 02:03:00,
2013-04-16 22:18:00,52.7,49.0,30.02,WSW,251,23.0,38.0,88,0.00,,,0.05,0,weatherlink.com 1.10,2013-04-17 02:18:00,
2013-04-16 22:33:00,52.2,49.0,30.02,West,268,26.0,37.0,90,0.00,,,0.05,0,weatherlink.com 1.10,2013-04-17 02:33:00,
2013-04-16 22:48:00,51.7,50.0,30.02,WSW,251,12.0,35.0,93,0.00,,,0.05,0,weatherlink.com 1.10,2013-04-17 02:48:00,
2013-04-16 23:03:00,52.3,50.0,30.02,West,268,23.0,37.0,92,0.00,,,0.05,0,weatherlink.com 1.10,2013-04-17 03:03:00,
2013-04-16 23:18:00,52.5,50.0,30.02,WSW,252,28.0,36.0,91,0.00,,,0.05,0,weatherlink.com 1.10,2013-04-17 03:18:00,
2013-04-16 23:33:00,52.7,51.0,30.02,West,260,23.0,34.0,92,0.00,,,0.05,0,weatherlink.com 1.10,2013-04-17 03:33:00,
2013-04-16 23:48:00,52.6,50.0,30.01,West,262,15.0,37.0,92,0.00,,,0.05,0,weatherlink.com 1.10,2013-04-17 03:48:00,